sensor_id;sensor_type;location;lat;lon;timestamp;temperature;humidity
28763;DHT22;15918;51.270;6.522;2023-02-14T00:01:36;11.00;65.00
28763;DHT22;15918;51.270;6.522;2023-02-14T00:04:03;11.00;65.10
28763;DHT22;15918;51.270;6.522;2023-02-14T00:06:31;10.90;65.10
28763;DHT22;15918;51.270;6.522;2023-02-14T00:09:03;10.90;65.20
28763;DHT22;15918;51.270;6.522;2023-02-14T00:11:29;10.90;65.20
28763;DHT22;15918;51.270;6.522;2023-02-14T00:13:55;10.90;65.20
28763;DHT22;15918;51.270;6.522;2023-02-14T00:16:39;10.90;65.20
28763;DHT22;15918;51.270;6.522;2023-02-14T00:19:05;10.90;65.30
28763;DHT22;15918;51.270;6.522;2023-02-14T00:21:32;10.90;65.30
28763;DHT22;15918;51.270;6.522;2023-02-14T00:24:04;10.80;65.30
28763;DHT22;15918;51.270;6.522;2023-02-14T00:26:30;10.80;65.30
28763;DHT22;15918;51.270;6.522;2023-02-14T00:28:55;10.90;65.50
28763;DHT22;15918;51.270;6.522;2023-02-14T00:31:21;10.90;65.50
28763;DHT22;15918;51.270;6.522;2023-02-14T00:33:46;10.80;65.50
28763;DHT22;15918;51.270;6.522;2023-02-14T00:36:12;10.80;65.50
28763;DHT22;15918;51.270;6.522;2023-02-14T00:38:38;10.80;65.50
28763;DHT22;15918;51.270;6.522;2023-02-14T00:41:04;10.90;65.60
28763;DHT22;15918;51.270;6.522;2023-02-14T00:43:29;10.80;65.60
28763;DHT22;15918;51.270;6.522;2023-02-14T00:45:55;10.80;65.60
28763;DHT22;15918;51.270;6.522;2023-02-14T00:48:20;10.80;65.60
28763;DHT22;15918;51.270;6.522;2023-02-14T00:50:46;10.80;65.60
28763;DHT22;15918;51.270;6.522;2023-02-14T00:53:12;10.70;65.60
28763;DHT22;15918;51.270;6.522;2023-02-14T00:55:38;10.70;65.70
28763;DHT22;15918;51.270;6.522;2023-02-14T00:58:04;10.70;65.70
28763;DHT22;15918;51.270;6.522;2023-02-14T01:00:30;10.70;65.70
28763;DHT22;15918;51.270;6.522;2023-02-14T01:02:56;10.70;65.70
28763;DHT22;15918;51.270;6.522;2023-02-14T01:05:21;10.70;65.70
28763;DHT22;15918;51.270;6.522;2023-02-14T01:07:47;10.70;65.70
28763;DHT22;15918;51.270;6.522;2023-02-14T01:10:12;10.70;65.70
28763;DHT22;15918;51.270;6.522;2023-02-14T01:12:38;10.70;65.80
28763;DHT22;15918;51.270;6.522;2023-02-14T01:15:04;10.70;65.80
28763;DHT22;15918;51.270;6.522;2023-02-14T01:17:29;10.70;65.80
28763;DHT22;15918;51.270;6.522;2023-02-14T01:19:55;10.70;65.80
28763;DHT22;15918;51.270;6.522;2023-02-14T01:22:21;10.70;65.80
28763;DHT22;15918;51.270;6.522;2023-02-14T01:24:46;10.70;65.80
28763;DHT22;15918;51.270;6.522;2023-02-14T01:27:12;10.70;65.80
28763;DHT22;15918;51.270;6.522;2023-02-14T01:29:37;10.70;65.80
28763;DHT22;15918;51.270;6.522;2023-02-14T01:32:03;10.70;65.80
28763;DHT22;15918;51.270;6.522;2023-02-14T01:34:29;10.60;65.80
28763;DHT22;15918;51.270;6.522;2023-02-14T01:36:54;10.70;65.80
28763;DHT22;15918;51.270;6.522;2023-02-14T01:39:20;10.70;65.80
28763;DHT22;15918;51.270;6.522;2023-02-14T01:41:46;10.70;65.90
28763;DHT22;15918;51.270;6.522;2023-02-14T01:46:39;10.60;65.80
28763;DHT22;15918;51.270;6.522;2023-02-14T01:49:14;10.60;65.80
28763;DHT22;15918;51.270;6.522;2023-02-14T01:52:21;10.60;66.60
28763;DHT22;15918;51.270;6.522;2023-02-14T01:55:00;10.70;65.80
28763;DHT22;15918;51.270;6.522;2023-02-14T01:57:47;10.60;65.90
28763;DHT22;15918;51.270;6.522;2023-02-14T02:00:15;10.60;65.80
28763;DHT22;15918;51.270;6.522;2023-02-14T02:03:00;10.60;65.90
28763;DHT22;15918;51.270;6.522;2023-02-14T02:05:27;10.60;65.90
28763;DHT22;15918;51.270;6.522;2023-02-14T02:07:56;10.60;65.90
28763;DHT22;15918;51.270;6.522;2023-02-14T02:10:22;10.60;65.80
28763;DHT22;15918;51.270;6.522;2023-02-14T02:12:50;10.50;65.70
28763;DHT22;15918;51.270;6.522;2023-02-14T02:15:41;10.60;65.70
28763;DHT22;15918;51.270;6.522;2023-02-14T02:18:38;10.50;65.60
28763;DHT22;15918;51.270;6.522;2023-02-14T02:21:31;10.60;65.70
28763;DHT22;15918;51.270;6.522;2023-02-14T02:29:48;10.50;65.70
28763;DHT22;15918;51.270;6.522;2023-02-14T02:41:22;10.50;65.70
28763;DHT22;15918;51.270;6.522;2023-02-14T02:46:35;10.50;65.80
28763;DHT22;15918;51.270;6.522;2023-02-14T02:52:15;10.40;65.70
28763;DHT22;15918;51.270;6.522;2023-02-14T02:55:12;10.50;65.70
28763;DHT22;15918;51.270;6.522;2023-02-14T02:57:39;10.40;65.70
28763;DHT22;15918;51.270;6.522;2023-02-14T03:00:07;10.40;65.70
28763;DHT22;15918;51.270;6.522;2023-02-14T03:02:43;10.40;65.70
28763;DHT22;15918;51.270;6.522;2023-02-14T03:05:30;10.40;65.70
28763;DHT22;15918;51.270;6.522;2023-02-14T03:07:56;10.40;65.80
28763;DHT22;15918;51.270;6.522;2023-02-14T03:10:28;10.40;65.70
28763;DHT22;15918;51.270;6.522;2023-02-14T03:16:01;10.40;65.50
28763;DHT22;15918;51.270;6.522;2023-02-14T03:18:56;10.40;65.70
28763;DHT22;15918;51.270;6.522;2023-02-14T03:26:49;10.30;65.60
28763;DHT22;15918;51.270;6.522;2023-02-14T03:29:40;10.30;65.60
28763;DHT22;15918;51.270;6.522;2023-02-14T03:32:18;10.30;65.40
28763;DHT22;15918;51.270;6.522;2023-02-14T03:37:16;10.30;65.60
28763;DHT22;15918;51.270;6.522;2023-02-14T03:42:34;10.30;65.50
28763;DHT22;15918;51.270;6.522;2023-02-14T03:45:01;10.30;65.40
28763;DHT22;15918;51.270;6.522;2023-02-14T03:47:31;10.20;65.50
28763;DHT22;15918;51.270;6.522;2023-02-14T03:50:12;10.30;65.40
28763;DHT22;15918;51.270;6.522;2023-02-14T03:52:39;10.30;65.40
28763;DHT22;15918;51.270;6.522;2023-02-14T03:55:07;10.30;65.50
28763;DHT22;15918;51.270;6.522;2023-02-14T04:00:08;10.20;65.30
28763;DHT22;15918;51.270;6.522;2023-02-14T04:02:41;10.20;65.30
28763;DHT22;15918;51.270;6.522;2023-02-14T04:05:16;10.20;65.30
28763;DHT22;15918;51.270;6.522;2023-02-14T04:07:45;10.20;65.40
28763;DHT22;15918;51.270;6.522;2023-02-14T04:10:11;10.20;65.40
28763;DHT22;15918;51.270;6.522;2023-02-14T04:12:37;10.20;65.40
28763;DHT22;15918;51.270;6.522;2023-02-14T04:15:03;10.20;65.40
28763;DHT22;15918;51.270;6.522;2023-02-14T04:17:29;10.20;65.40
28763;DHT22;15918;51.270;6.522;2023-02-14T04:20:13;10.20;65.30
28763;DHT22;15918;51.270;6.522;2023-02-14T04:22:38;10.10;65.40
28763;DHT22;15918;51.270;6.522;2023-02-14T04:25:04;10.10;65.40
28763;DHT22;15918;51.270;6.522;2023-02-14T04:27:30;10.10;65.40
28763;DHT22;15918;51.270;6.522;2023-02-14T04:29:55;10.10;65.30
28763;DHT22;15918;51.270;6.522;2023-02-14T04:32:21;10.10;65.30
28763;DHT22;15918;51.270;6.522;2023-02-14T04:34:47;10.10;65.30
28763;DHT22;15918;51.270;6.522;2023-02-14T04:37:15;10.10;65.30
28763;DHT22;15918;51.270;6.522;2023-02-14T04:39:41;10.10;65.30
28763;DHT22;15918;51.270;6.522;2023-02-14T04:42:07;10.10;65.30
28763;DHT22;15918;51.270;6.522;2023-02-14T04:44:32;10.10;65.30
28763;DHT22;15918;51.270;6.522;2023-02-14T04:46:59;10.10;65.30
28763;DHT22;15918;51.270;6.522;2023-02-14T04:49:24;10.10;65.30
28763;DHT22;15918;51.270;6.522;2023-02-14T04:51:50;10.10;65.30
28763;DHT22;15918;51.270;6.522;2023-02-14T04:54:15;10.10;65.30
28763;DHT22;15918;51.270;6.522;2023-02-14T04:56:41;10.10;65.30
28763;DHT22;15918;51.270;6.522;2023-02-14T04:59:07;10.00;65.20
28763;DHT22;15918;51.270;6.522;2023-02-14T05:01:32;10.00;65.30
28763;DHT22;15918;51.270;6.522;2023-02-14T05:03:58;10.00;65.30
28763;DHT22;15918;51.270;6.522;2023-02-14T05:06:23;10.00;65.30
28763;DHT22;15918;51.270;6.522;2023-02-14T05:08:49;10.00;66.10
28763;DHT22;15918;51.270;6.522;2023-02-14T05:11:15;10.00;65.30
28763;DHT22;15918;51.270;6.522;2023-02-14T05:13:40;10.00;65.30
28763;DHT22;15918;51.270;6.522;2023-02-14T05:16:06;10.00;65.30
28763;DHT22;15918;51.270;6.522;2023-02-14T05:18:32;10.00;65.30
28763;DHT22;15918;51.270;6.522;2023-02-14T05:20:57;10.00;65.30
28763;DHT22;15918;51.270;6.522;2023-02-14T05:23:23;10.00;65.30
28763;DHT22;15918;51.270;6.522;2023-02-14T05:25:50;10.00;65.30
28763;DHT22;15918;51.270;6.522;2023-02-14T05:28:17;9.90;65.30
28763;DHT22;15918;51.270;6.522;2023-02-14T05:30:42;9.90;65.30
28763;DHT22;15918;51.270;6.522;2023-02-14T05:33:08;9.90;65.30
28763;DHT22;15918;51.270;6.522;2023-02-14T05:35:34;9.90;65.30
28763;DHT22;15918;51.270;6.522;2023-02-14T05:37:59;9.90;65.30
28763;DHT22;15918;51.270;6.522;2023-02-14T05:40:25;9.90;65.30
28763;DHT22;15918;51.270;6.522;2023-02-14T05:42:52;9.90;65.30
28763;DHT22;15918;51.270;6.522;2023-02-14T05:45:18;9.90;65.40
28763;DHT22;15918;51.270;6.522;2023-02-14T05:47:43;9.90;65.40
28763;DHT22;15918;51.270;6.522;2023-02-14T05:50:09;9.90;65.30
28763;DHT22;15918;51.270;6.522;2023-02-14T05:52:35;9.90;65.30
28763;DHT22;15918;51.270;6.522;2023-02-14T05:55:01;9.90;65.30
28763;DHT22;15918;51.270;6.522;2023-02-14T05:57:27;9.90;65.30
28763;DHT22;15918;51.270;6.522;2023-02-14T05:59:52;9.90;65.30
28763;DHT22;15918;51.270;6.522;2023-02-14T06:02:18;9.90;65.30
28763;DHT22;15918;51.270;6.522;2023-02-14T06:04:44;9.90;65.30
28763;DHT22;15918;51.270;6.522;2023-02-14T06:07:09;9.90;65.30
28763;DHT22;15918;51.270;6.522;2023-02-14T06:09:35;9.90;65.30
28763;DHT22;15918;51.270;6.522;2023-02-14T06:12:00;9.80;65.20
28763;DHT22;15918;51.270;6.522;2023-02-14T06:14:26;9.80;65.20
28763;DHT22;15918;51.270;6.522;2023-02-14T06:16:52;9.80;65.20
28763;DHT22;15918;51.270;6.522;2023-02-14T06:19:17;9.80;65.30
28763;DHT22;15918;51.270;6.522;2023-02-14T06:21:43;9.80;65.30
28763;DHT22;15918;51.270;6.522;2023-02-14T06:24:08;9.80;65.30
28763;DHT22;15918;51.270;6.522;2023-02-14T06:26:34;9.80;65.30
28763;DHT22;15918;51.270;6.522;2023-02-14T06:29:01;9.80;65.30
28763;DHT22;15918;51.270;6.522;2023-02-14T06:31:27;9.80;65.40
28763;DHT22;15918;51.270;6.522;2023-02-14T06:33:53;9.70;65.30
28763;DHT22;15918;51.270;6.522;2023-02-14T06:36:19;9.70;65.20
28763;DHT22;15918;51.270;6.522;2023-02-14T06:38:46;9.80;65.30
28763;DHT22;15918;51.270;6.522;2023-02-14T06:41:12;9.70;65.30
28763;DHT22;15918;51.270;6.522;2023-02-14T06:43:39;9.80;65.30
28763;DHT22;15918;51.270;6.522;2023-02-14T06:46:05;9.70;65.20
28763;DHT22;15918;51.270;6.522;2023-02-14T06:48:31;9.70;65.30
28763;DHT22;15918;51.270;6.522;2023-02-14T06:50:57;9.70;65.20
28763;DHT22;15918;51.270;6.522;2023-02-14T06:53:22;9.70;65.30
28763;DHT22;15918;51.270;6.522;2023-02-14T06:55:48;9.70;65.30
28763;DHT22;15918;51.270;6.522;2023-02-14T06:58:14;9.70;65.30
28763;DHT22;15918;51.270;6.522;2023-02-14T07:00:39;9.70;65.30
28763;DHT22;15918;51.270;6.522;2023-02-14T07:03:06;9.70;65.30
28763;DHT22;15918;51.270;6.522;2023-02-14T07:05:32;9.60;65.30
28763;DHT22;15918;51.270;6.522;2023-02-14T07:07:58;9.60;65.30
28763;DHT22;15918;51.270;6.522;2023-02-14T07:10:24;9.60;65.40
28763;DHT22;15918;51.270;6.522;2023-02-14T07:12:49;9.60;65.40
28763;DHT22;15918;51.270;6.522;2023-02-14T07:15:15;9.60;65.40
28763;DHT22;15918;51.270;6.522;2023-02-14T07:17:41;9.60;65.40
28763;DHT22;15918;51.270;6.522;2023-02-14T07:20:08;9.60;65.40
28763;DHT22;15918;51.270;6.522;2023-02-14T07:22:34;9.60;65.50
28763;DHT22;15918;51.270;6.522;2023-02-14T07:25:00;9.60;65.50
28763;DHT22;15918;51.270;6.522;2023-02-14T07:27:25;9.60;65.50
28763;DHT22;15918;51.270;6.522;2023-02-14T07:29:51;9.60;65.50
28763;DHT22;15918;51.270;6.522;2023-02-14T07:32:16;9.60;65.60
28763;DHT22;15918;51.270;6.522;2023-02-14T07:34:43;9.60;65.60
28763;DHT22;15918;51.270;6.522;2023-02-14T07:37:08;9.60;65.60
28763;DHT22;15918;51.270;6.522;2023-02-14T07:39:34;9.60;65.60
28763;DHT22;15918;51.270;6.522;2023-02-14T07:41:59;9.60;65.60
28763;DHT22;15918;51.270;6.522;2023-02-14T07:44:25;9.60;65.60
28763;DHT22;15918;51.270;6.522;2023-02-14T07:46:51;9.50;65.50
28763;DHT22;15918;51.270;6.522;2023-02-14T07:49:16;9.50;65.50
28763;DHT22;15918;51.270;6.522;2023-02-14T07:51:42;9.50;65.50
28763;DHT22;15918;51.270;6.522;2023-02-14T07:54:07;9.50;65.70
28763;DHT22;15918;51.270;6.522;2023-02-14T07:56:33;9.60;65.70
28763;DHT22;15918;51.270;6.522;2023-02-14T07:58:58;9.60;65.70
28763;DHT22;15918;51.270;6.522;2023-02-14T08:01:24;9.60;65.80
28763;DHT22;15918;51.270;6.522;2023-02-14T08:03:50;9.60;65.80
28763;DHT22;15918;51.270;6.522;2023-02-14T08:06:17;9.50;65.70
28763;DHT22;15918;51.270;6.522;2023-02-14T08:08:43;9.60;65.80
28763;DHT22;15918;51.270;6.522;2023-02-14T08:11:09;9.60;65.80
28763;DHT22;15918;51.270;6.522;2023-02-14T08:13:35;9.60;65.80
28763;DHT22;15918;51.270;6.522;2023-02-14T08:16:01;9.60;65.80
28763;DHT22;15918;51.270;6.522;2023-02-14T08:18:35;9.60;65.80
28763;DHT22;15918;51.270;6.522;2023-02-14T08:21:01;9.60;65.90
28763;DHT22;15918;51.270;6.522;2023-02-14T08:23:27;9.60;66.00
28763;DHT22;15918;51.270;6.522;2023-02-14T08:25:53;9.60;65.90
28763;DHT22;15918;51.270;6.522;2023-02-14T08:28:19;9.60;66.00
28763;DHT22;15918;51.270;6.522;2023-02-14T08:30:45;9.60;65.90
28763;DHT22;15918;51.270;6.522;2023-02-14T08:33:11;9.60;65.90
28763;DHT22;15918;51.270;6.522;2023-02-14T08:35:37;9.60;66.00
28763;DHT22;15918;51.270;6.522;2023-02-14T08:38:03;9.60;66.00
28763;DHT22;15918;51.270;6.522;2023-02-14T08:40:30;9.60;66.10
28763;DHT22;15918;51.270;6.522;2023-02-14T08:42:55;9.60;66.00
28763;DHT22;15918;51.270;6.522;2023-02-14T08:45:22;9.60;66.00
28763;DHT22;15918;51.270;6.522;2023-02-14T08:47:47;9.70;66.10
28763;DHT22;15918;51.270;6.522;2023-02-14T08:50:15;9.70;66.10
28763;DHT22;15918;51.270;6.522;2023-02-14T08:52:42;9.70;66.10
28763;DHT22;15918;51.270;6.522;2023-02-14T08:55:11;9.70;66.20
28763;DHT22;15918;51.270;6.522;2023-02-14T08:57:37;9.70;66.10
28763;DHT22;15918;51.270;6.522;2023-02-14T09:00:04;9.70;66.20
28763;DHT22;15918;51.270;6.522;2023-02-14T09:02:30;9.70;66.20
28763;DHT22;15918;51.270;6.522;2023-02-14T09:04:56;9.70;66.20
28763;DHT22;15918;51.270;6.522;2023-02-14T09:07:21;9.80;66.20
28763;DHT22;15918;51.270;6.522;2023-02-14T09:09:47;9.80;66.30
28763;DHT22;15918;51.270;6.522;2023-02-14T09:12:12;9.80;66.20
28763;DHT22;15918;51.270;6.522;2023-02-14T09:14:40;9.80;66.30
28763;DHT22;15918;51.270;6.522;2023-02-14T09:17:08;9.80;66.30
28763;DHT22;15918;51.270;6.522;2023-02-14T09:19:35;9.80;66.30
28763;DHT22;15918;51.270;6.522;2023-02-14T09:22:02;9.90;66.40
28763;DHT22;15918;51.270;6.522;2023-02-14T09:24:29;9.90;66.40
28763;DHT22;15918;51.270;6.522;2023-02-14T09:26:55;9.90;66.40
28763;DHT22;15918;51.270;6.522;2023-02-14T09:29:23;9.90;66.40
28763;DHT22;15918;51.270;6.522;2023-02-14T09:31:55;9.90;67.20
28763;DHT22;15918;51.270;6.522;2023-02-14T09:34:21;10.00;66.50
28763;DHT22;15918;51.270;6.522;2023-02-14T09:37:05;10.00;66.50
28763;DHT22;15918;51.270;6.522;2023-02-14T09:39:49;10.00;66.50
28763;DHT22;15918;51.270;6.522;2023-02-14T09:45:21;10.10;66.50
28763;DHT22;15918;51.270;6.522;2023-02-14T09:52:56;10.10;66.70
28763;DHT22;15918;51.270;6.522;2023-02-14T09:55:25;10.10;66.70
28763;DHT22;15918;51.270;6.522;2023-02-14T09:58:12;10.10;66.70
28763;DHT22;15918;51.270;6.522;2023-02-14T10:06:00;10.20;66.70
28763;DHT22;15918;51.270;6.522;2023-02-14T10:08:43;10.20;66.80
28763;DHT22;15918;51.270;6.522;2023-02-14T10:11:12;10.30;66.90
28763;DHT22;15918;51.270;6.522;2023-02-14T10:16:32;10.40;67.00
28763;DHT22;15918;51.270;6.522;2023-02-14T10:22:05;10.40;67.00
28763;DHT22;15918;51.270;6.522;2023-02-14T10:24:37;10.40;67.10
28763;DHT22;15918;51.270;6.522;2023-02-14T10:27:31;10.50;67.10
28763;DHT22;15918;51.270;6.522;2023-02-14T10:29:58;10.50;67.80
28763;DHT22;15918;51.270;6.522;2023-02-14T10:32:36;10.50;67.10
28763;DHT22;15918;51.270;6.522;2023-02-14T10:35:37;10.60;67.10
28763;DHT22;15918;51.270;6.522;2023-02-14T10:54:37;10.80;67.20
28763;DHT22;15918;51.270;6.522;2023-02-14T10:57:33;10.80;67.20
28763;DHT22;15918;51.270;6.522;2023-02-14T11:00:15;10.90;67.10
28763;DHT22;15918;51.270;6.522;2023-02-14T11:02:45;10.90;67.20
28763;DHT22;15918;51.270;6.522;2023-02-14T11:05:30;10.90;67.20
28763;DHT22;15918;51.270;6.522;2023-02-14T11:07:57;11.00;67.10
28763;DHT22;15918;51.270;6.522;2023-02-14T11:10:26;11.00;67.20
28763;DHT22;15918;51.270;6.522;2023-02-14T11:12:54;11.00;67.10
28763;DHT22;15918;51.270;6.522;2023-02-14T11:15:29;11.00;67.00
28763;DHT22;15918;51.270;6.522;2023-02-14T11:18:21;11.10;66.90
28763;DHT22;15918;51.270;6.522;2023-02-14T11:23:35;11.10;67.00
28763;DHT22;15918;51.270;6.522;2023-02-14T11:26:03;11.20;67.10
28763;DHT22;15918;51.270;6.522;2023-02-14T11:28:29;11.20;67.10
28763;DHT22;15918;51.270;6.522;2023-02-14T11:30:55;11.20;67.10
28763;DHT22;15918;51.270;6.522;2023-02-14T11:33:38;11.20;67.00
28763;DHT22;15918;51.270;6.522;2023-02-14T11:36:12;11.30;67.00
28763;DHT22;15918;51.270;6.522;2023-02-14T11:38:39;11.30;67.00
28763;DHT22;15918;51.270;6.522;2023-02-14T11:41:11;11.30;67.00
28763;DHT22;15918;51.270;6.522;2023-02-14T11:43:39;11.40;66.90
28763;DHT22;15918;51.270;6.522;2023-02-14T11:49:02;11.40;66.70
28763;DHT22;15918;51.270;6.522;2023-02-14T11:51:46;11.40;66.60
28763;DHT22;15918;51.270;6.522;2023-02-14T11:54:26;11.40;66.70
28763;DHT22;15918;51.270;6.522;2023-02-14T11:56:55;11.40;66.70
28763;DHT22;15918;51.270;6.522;2023-02-14T11:59:42;11.40;66.70
28763;DHT22;15918;51.270;6.522;2023-02-14T12:02:20;11.40;66.70
28763;DHT22;15918;51.270;6.522;2023-02-14T12:04:48;11.50;66.90
28763;DHT22;15918;51.270;6.522;2023-02-14T12:07:30;11.50;67.00
28763;DHT22;15918;51.270;6.522;2023-02-14T12:12:34;11.60;66.90
28763;DHT22;15918;51.270;6.522;2023-02-14T12:15:22;11.60;67.00
28763;DHT22;15918;51.270;6.522;2023-02-14T12:17:52;11.60;67.10
28763;DHT22;15918;51.270;6.522;2023-02-14T12:20:43;11.60;67.20
28763;DHT22;15918;51.270;6.522;2023-02-14T12:23:16;11.70;67.30
28763;DHT22;15918;51.270;6.522;2023-02-14T12:26:08;11.70;67.20
28763;DHT22;15918;51.270;6.522;2023-02-14T12:28:42;11.70;67.10
28763;DHT22;15918;51.270;6.522;2023-02-14T12:31:11;11.70;67.20
28763;DHT22;15918;51.270;6.522;2023-02-14T12:33:37;11.70;67.20
28763;DHT22;15918;51.270;6.522;2023-02-14T12:38:59;11.80;67.20
28763;DHT22;15918;51.270;6.522;2023-02-14T12:45:04;11.80;66.90
28763;DHT22;15918;51.270;6.522;2023-02-14T12:50:55;11.80;67.10
28763;DHT22;15918;51.270;6.522;2023-02-14T13:04:43;11.90;67.10
28763;DHT22;15918;51.270;6.522;2023-02-14T13:07:30;12.00;67.40
28763;DHT22;15918;51.270;6.522;2023-02-14T13:10:49;12.00;67.30
28763;DHT22;15918;51.270;6.522;2023-02-14T13:16:42;12.00;67.10
28763;DHT22;15918;51.270;6.522;2023-02-14T13:19:28;12.00;67.20
28763;DHT22;15918;51.270;6.522;2023-02-14T13:21:56;12.10;67.40
28763;DHT22;15918;51.270;6.522;2023-02-14T13:24:46;12.10;67.40
28763;DHT22;15918;51.270;6.522;2023-02-14T13:27:26;12.10;67.40
28763;DHT22;15918;51.270;6.522;2023-02-14T13:29:56;12.10;67.50
28763;DHT22;15918;51.270;6.522;2023-02-14T13:32:25;12.10;67.40
28763;DHT22;15918;51.270;6.522;2023-02-14T13:34:53;12.10;67.00
28763;DHT22;15918;51.270;6.522;2023-02-14T13:37:21;12.20;67.10
28763;DHT22;15918;51.270;6.522;2023-02-14T13:39:55;12.10;67.10
28763;DHT22;15918;51.270;6.522;2023-02-14T13:42:59;12.20;67.10
28763;DHT22;15918;51.270;6.522;2023-02-14T13:48:20;12.20;67.40
28763;DHT22;15918;51.270;6.522;2023-02-14T13:58:56;12.20;67.20
28763;DHT22;15918;51.270;6.522;2023-02-14T14:04:32;12.20;67.00
28763;DHT22;15918;51.270;6.522;2023-02-14T14:17:31;12.30;66.90
28763;DHT22;15918;51.270;6.522;2023-02-14T14:19:57;12.30;66.60
28763;DHT22;15918;51.270;6.522;2023-02-14T14:22:24;12.30;66.30
28763;DHT22;15918;51.270;6.522;2023-02-14T14:24:56;12.30;66.60
28763;DHT22;15918;51.270;6.522;2023-02-14T14:27:29;12.30;66.50
28763;DHT22;15918;51.270;6.522;2023-02-14T14:30:28;12.30;66.70
28763;DHT22;15918;51.270;6.522;2023-02-14T14:32:55;12.30;66.80
28763;DHT22;15918;51.270;6.522;2023-02-14T14:35:22;12.30;66.90
28763;DHT22;15918;51.270;6.522;2023-02-14T14:37:52;12.30;67.00
28763;DHT22;15918;51.270;6.522;2023-02-14T14:40:30;12.30;67.10
28763;DHT22;15918;51.270;6.522;2023-02-14T14:43:21;12.30;67.00
28763;DHT22;15918;51.270;6.522;2023-02-14T14:45:48;12.40;67.00
28763;DHT22;15918;51.270;6.522;2023-02-14T14:48:30;12.40;67.20
28763;DHT22;15918;51.270;6.522;2023-02-14T14:50:58;12.30;66.90
28763;DHT22;15918;51.270;6.522;2023-02-14T14:53:34;12.30;67.00
28763;DHT22;15918;51.270;6.522;2023-02-14T14:56:01;12.40;67.00
28763;DHT22;15918;51.270;6.522;2023-02-14T14:58:39;12.40;67.10
28763;DHT22;15918;51.270;6.522;2023-02-14T15:01:09;12.40;67.10
28763;DHT22;15918;51.270;6.522;2023-02-14T15:03:37;12.30;66.90
28763;DHT22;15918;51.270;6.522;2023-02-14T15:06:13;12.40;66.90
28763;DHT22;15918;51.270;6.522;2023-02-14T15:08:41;12.40;66.80
28763;DHT22;15918;51.270;6.522;2023-02-14T15:11:16;12.40;66.80
28763;DHT22;15918;51.270;6.522;2023-02-14T15:14:05;12.40;66.80
28763;DHT22;15918;51.270;6.522;2023-02-14T15:16:48;12.40;67.00
28763;DHT22;15918;51.270;6.522;2023-02-14T15:19:24;12.40;67.00
28763;DHT22;15918;51.270;6.522;2023-02-14T15:21:56;12.40;67.00
28763;DHT22;15918;51.270;6.522;2023-02-14T15:24:21;12.40;67.10
28763;DHT22;15918;51.270;6.522;2023-02-14T15:26:48;12.40;67.00
28763;DHT22;15918;51.270;6.522;2023-02-14T15:29:23;12.40;67.10
28763;DHT22;15918;51.270;6.522;2023-02-14T15:31:49;12.40;67.10
28763;DHT22;15918;51.270;6.522;2023-02-14T15:34:29;12.40;67.10
28763;DHT22;15918;51.270;6.522;2023-02-14T15:36:56;12.40;67.00
28763;DHT22;15918;51.270;6.522;2023-02-14T15:39:36;12.40;67.00
28763;DHT22;15918;51.270;6.522;2023-02-14T15:42:04;12.40;66.90
28763;DHT22;15918;51.270;6.522;2023-02-14T15:44:30;12.40;66.90
28763;DHT22;15918;51.270;6.522;2023-02-14T15:47:00;12.40;66.80
28763;DHT22;15918;51.270;6.522;2023-02-14T15:49:34;12.40;66.70
28763;DHT22;15918;51.270;6.522;2023-02-14T15:52:04;12.40;66.60
28763;DHT22;15918;51.270;6.522;2023-02-14T15:54:37;12.40;66.50
28763;DHT22;15918;51.270;6.522;2023-02-14T15:57:06;12.40;66.40
28763;DHT22;15918;51.270;6.522;2023-02-14T15:59:41;12.40;66.50
28763;DHT22;15918;51.270;6.522;2023-02-14T16:04:51;12.40;66.20
28763;DHT22;15918;51.270;6.522;2023-02-14T16:07:27;12.30;66.40
28763;DHT22;15918;51.270;6.522;2023-02-14T16:10:35;12.40;66.20
28763;DHT22;15918;51.270;6.522;2023-02-14T16:13:15;12.40;66.40
28763;DHT22;15918;51.270;6.522;2023-02-14T16:16:03;12.30;66.50
28763;DHT22;15918;51.270;6.522;2023-02-14T16:21:17;12.30;66.80
28763;DHT22;15918;51.270;6.522;2023-02-14T16:23:45;12.30;66.80
28763;DHT22;15918;51.270;6.522;2023-02-14T16:26:12;12.30;66.90
28763;DHT22;15918;51.270;6.522;2023-02-14T16:28:38;12.30;67.00
28763;DHT22;15918;51.270;6.522;2023-02-14T16:31:05;12.20;67.00
28763;DHT22;15918;51.270;6.522;2023-02-14T16:33:37;12.20;66.90
28763;DHT22;15918;51.270;6.522;2023-02-14T16:36:22;12.20;67.00
28763;DHT22;15918;51.270;6.522;2023-02-14T16:38:49;12.20;67.00
28763;DHT22;15918;51.270;6.522;2023-02-14T16:41:20;12.20;67.00
28763;DHT22;15918;51.270;6.522;2023-02-14T16:43:46;12.20;67.00
28763;DHT22;15918;51.270;6.522;2023-02-14T16:46:15;12.10;66.90
28763;DHT22;15918;51.270;6.522;2023-02-14T16:48:42;12.20;66.90
28763;DHT22;15918;51.270;6.522;2023-02-14T16:51:12;12.20;66.90
28763;DHT22;15918;51.270;6.522;2023-02-14T16:53:39;12.10;66.70
28763;DHT22;15918;51.270;6.522;2023-02-14T16:56:08;12.10;66.70
28763;DHT22;15918;51.270;6.522;2023-02-14T16:58:37;12.10;66.70
28763;DHT22;15918;51.270;6.522;2023-02-14T17:01:03;12.10;66.60
28763;DHT22;15918;51.270;6.522;2023-02-14T17:03:28;12.10;66.60
28763;DHT22;15918;51.270;6.522;2023-02-14T17:05:56;12.10;66.50
28763;DHT22;15918;51.270;6.522;2023-02-14T17:08:22;12.10;66.40
28763;DHT22;15918;51.270;6.522;2023-02-14T17:10:48;12.10;66.40
28763;DHT22;15918;51.270;6.522;2023-02-14T17:13:19;12.00;66.20
28763;DHT22;15918;51.270;6.522;2023-02-14T17:15:46;12.00;66.10
28763;DHT22;15918;51.270;6.522;2023-02-14T17:18:14;12.00;66.10
28763;DHT22;15918;51.270;6.522;2023-02-14T17:20:41;12.00;66.00
28763;DHT22;15918;51.270;6.522;2023-02-14T17:23:06;12.00;65.90
28763;DHT22;15918;51.270;6.522;2023-02-14T17:25:33;12.00;65.80
28763;DHT22;15918;51.270;6.522;2023-02-14T17:27:59;11.90;65.70
28763;DHT22;15918;51.270;6.522;2023-02-14T17:30:25;12.00;66.40
28763;DHT22;15918;51.270;6.522;2023-02-14T17:32:51;11.90;65.50
28763;DHT22;15918;51.270;6.522;2023-02-14T17:35:17;11.90;65.40
28763;DHT22;15918;51.270;6.522;2023-02-14T17:37:43;11.90;65.40
28763;DHT22;15918;51.270;6.522;2023-02-14T17:40:09;11.90;65.30
28763;DHT22;15918;51.270;6.522;2023-02-14T17:42:35;11.90;65.20
28763;DHT22;15918;51.270;6.522;2023-02-14T17:45:03;11.90;65.10
28763;DHT22;15918;51.270;6.522;2023-02-14T17:47:31;11.90;65.00
28763;DHT22;15918;51.270;6.522;2023-02-14T17:49:56;11.80;64.90
28763;DHT22;15918;51.270;6.522;2023-02-14T17:52:23;11.80;64.80
28763;DHT22;15918;51.270;6.522;2023-02-14T17:54:49;11.80;64.70
28763;DHT22;15918;51.270;6.522;2023-02-14T17:57:15;11.80;64.70
28763;DHT22;15918;51.270;6.522;2023-02-14T17:59:41;11.70;64.50
28763;DHT22;15918;51.270;6.522;2023-02-14T18:02:07;11.80;64.60
28763;DHT22;15918;51.270;6.522;2023-02-14T18:04:33;11.70;64.40
28763;DHT22;15918;51.270;6.522;2023-02-14T18:07:00;11.70;64.40
28763;DHT22;15918;51.270;6.522;2023-02-14T18:09:26;11.70;64.40
28763;DHT22;15918;51.270;6.522;2023-02-14T18:11:52;11.70;64.30